Terminal Aerodrome Forecast
Issued by NWS Sioux Falls, SD

Home | Current Version | Previous Version | Text Only | Print | Product List | Glossary On
Versions: 1 2 3 4 5 6 7 8 9 10 11 12 13 14 15 16 17 18 19 20 21 22 23 24 25 26 27 28 29 30
000
FTUS43 KFSD 260520
TAFSUX
TAF
KSUX 260520Z 2606/2706 13007KT P6SM SCT050 BKN120
     FM260900 11005KT P6SM VCSH BKN050
     FM261100 02005KT P6SM SCT050 BKN150
     FM261300 32007KT P6SM BKN110
     FM261500 32011KT P6SM SCT110
     FM270100 32007KT P6SM SKC
     FM270300 32003KT P6SM SKC=

USA.gov is the U.S. government's official web portal to all federal, state and local government web resources and services.